Time;durP1;ratioP1;P1;durP2;ratioP2;P2;SDS_P1;SDS_P2;PMS_P1;PMS_P2;Temp;Humidity;BMP_temperature;BMP_pressure;BME280_temperature;BME280_humidity;BME280_pressure;Samples;Min_cycle;Max_cycle;Signal;HPM_P1;HPM_P2
2022/01/01 00:02:23;;;;;;;14.98;6.57;;;10.50;99.90;;;;;;5033648;28;20185;-75
2022/01/01 00:04:49;;;;;;;35.45;8.05;;;10.50;99.90;;;;;;5021159;28;21759;-76
2022/01/01 00:07:17;;;;;;;21.08;5.78;;;10.50;99.90;;;;;;5020115;28;20083;-75
2022/01/01 00:09:43;;;;;;;16.05;4.40;;;10.50;99.90;;;;;;5005234;28;20037;-75
2022/01/01 00:12:10;;;;;;;2.35;1.73;;;10.50;99.90;;;;;;5010012;28;20049;-75
2022/01/01 00:14:38;;;;;;;6.30;4.07;;;10.50;99.90;;;;;;5027501;28;20510;-75
2022/01/01 00:17:04;;;;;;;15.57;7.55;;;10.50;99.90;;;;;;5015182;28;20050;-75
2022/01/01 00:19:31;;;;;;;15.75;6.28;;;10.50;99.90;;;;;;5008671;28;20093;-75
2022/01/01 00:21:58;;;;;;;2.28;2.08;;;10.50;99.90;;;;;;5036430;28;20167;-75
2022/01/01 00:24:24;;;;;;;5.47;2.65;;;10.50;99.90;;;;;;5025842;28;20041;-75
2022/01/01 00:26:50;;;;;;;18.67;6.80;;;10.50;99.90;;;;;;5024706;28;20045;-75
2022/01/01 00:29:15;;;;;;;8.45;6.13;;;10.50;99.90;;;;;;5020596;28;20115;-75
2022/01/01 00:31:41;;;;;;;7.15;3.92;;;10.50;99.90;;;;;;5021240;28;20140;-75
2022/01/01 00:34:07;;;;;;;45.55;18.80;;;10.50;99.90;;;;;;5025522;28;20600;-76
2022/01/01 00:36:33;;;;;;;16.05;8.77;;;10.50;99.90;;;;;;5041876;28;20046;-75
2022/01/01 00:38:59;;;;;;;8.25;6.15;;;10.60;99.90;;;;;;5023843;28;20049;-75
2022/01/01 00:41:25;;;;;;;36.47;16.42;;;10.50;99.90;;;;;;5026407;28;20048;-75
2022/01/01 00:43:51;;;;;;;14.52;9.02;;;10.50;99.90;;;;;;5028494;28;20046;-75
2022/01/01 00:46:16;;;;;;;27.52;11.05;;;10.50;99.90;;;;;;5028651;28;20041;-75
2022/01/01 00:48:42;;;;;;;25.85;8.50;;;10.50;99.90;;;;;;5011628;28;20034;-75
2022/01/01 00:51:08;;;;;;;28.80;10.18;;;10.50;99.90;;;;;;5029044;28;20076;-76
2022/01/01 00:53:34;;;;;;;23.98;7.50;;;10.40;99.90;;;;;;5045408;28;20045;-75
2022/01/01 00:56:00;;;;;;;23.80;8.90;;;10.40;99.90;;;;;;5015284;28;20038;-75
2022/01/01 00:58:25;;;;;;;9.00;3.38;;;10.40;99.90;;;;;;5044741;28;20049;-75
2022/01/01 01:00:51;;;;;;;10.40;5.30;;;10.40;99.90;;;;;;5027802;28;20049;-75
2022/01/01 01:03:18;;;;;;;29.05;9.23;;;10.40;99.90;;;;;;5020777;28;20046;-75
2022/01/01 01:05:45;;;;;;;1.10;1.02;;;10.30;99.90;;;;;;5038752;28;20041;-75
2022/01/01 01:08:14;;;;;;;5.93;3.55;;;10.20;99.90;;;;;;5028931;28;20450;-75
2022/01/01 01:10:41;;;;;;;6.55;2.80;;;10.20;99.90;;;;;;5026201;28;20414;-75
2022/01/01 01:13:08;;;;;;;16.23;5.80;;;10.20;99.90;;;;;;5010360;28;20045;-75
2022/01/01 01:15:34;;;;;;;12.40;6.35;;;10.10;99.90;;;;;;5027847;28;20056;-75
2022/01/01 01:18:01;;;;;;;16.80;4.97;;;10.10;99.90;;;;;;5028323;28;20072;-75
2022/01/01 01:20:28;;;;;;;1.10;1.02;;;10.10;99.90;;;;;;5027149;28;20052;-75
2022/01/01 01:22:55;;;;;;;18.42;6.05;;;10.00;99.90;;;;;;5028933;28;20119;-75
2022/01/01 01:25:22;;;;;;;2.42;2.22;;;10.00;99.90;;;;;;5026474;28;20041;-75
2022/01/01 01:27:50;;;;;;;2.38;1.52;;;10.00;99.90;;;;;;5027321;28;20041;-75
2022/01/01 01:30:17;;;;;;;18.85;5.47;;;10.00;99.90;;;;;;5011870;28;20052;-75
2022/01/01 01:32:46;;;;;;;35.35;7.22;;;10.00;99.90;;;;;;5027937;28;20045;-75
2022/01/01 01:35:13;;;;;;;6.45;4.40;;;10.00;99.90;;;;;;5028039;28;20053;-75
2022/01/01 01:37:39;;;;;;;46.17;9.80;;;10.00;99.90;;;;;;5027949;28;20036;-75
2022/01/01 01:40:06;;;;;;;6.03;4.70;;;10.00;99.90;;;;;;5037350;28;20103;-75
2022/01/01 01:42:33;;;;;;;5.53;3.58;;;10.00;99.90;;;;;;5018804;28;20045;-75
2022/01/01 01:45:01;;;;;;;61.10;18.25;;;10.10;99.90;;;;;;5048036;28;20375;-75
2022/01/01 01:47:32;;;;;;;3.78;3.08;;;10.10;99.90;;;;;;5027473;28;20130;-75
2022/01/01 01:49:59;;;;;;;34.58;10.10;;;10.20;99.90;;;;;;5031590;28;20057;-75
2022/01/01 01:52:34;;;;;;;16.27;7.65;;;10.20;99.90;;;;;;5031573;28;20045;-75
2022/01/01 01:55:01;;;;;;;16.15;4.68;;;10.30;99.90;;;;;;5029379;28;20040;-75
2022/01/01 01:57:27;;;;;;;8.60;5.38;;;10.30;99.90;;;;;;5031221;28;20045;-75
2022/01/01 01:59:53;;;;;;;52.03;15.90;;;10.30;99.90;;;;;;5030989;28;20037;-75
2022/01/01 02:02:19;;;;;;;8.30;5.88;;;10.30;99.90;;;;;;5031948;28;20041;-75
2022/01/01 02:04:45;;;;;;;18.60;9.63;;;10.40;99.90;;;;;;5020781;28;20604;-75
2022/01/01 02:07:11;;;;;;;45.17;17.85;;;10.40;99.90;;;;;;5031175;28;20033;-75
2022/01/01 02:09:38;;;;;;;48.40;18.77;;;10.40;99.90;;;;;;5031454;28;20056;-75
2022/01/01 02:12:05;;;;;;;15.23;9.98;;;10.40;99.90;;;;;;5013772;28;20045;-75
2022/01/01 02:15:04;;;;;;;29.85;10.45;;;10.50;99.90;;;;;;5060661;28;20524;-75
2022/01/01 02:17:30;;;;;;;21.40;6.57;;;10.50;99.90;;;;;;5047353;28;20053;-75
2022/01/01 02:20:10;;;;;;;17.92;8.93;;;10.50;99.90;;;;;;5027156;28;20299;-75
2022/01/01 02:22:48;;;;;;;3.92;2.75;;;10.60;99.90;;;;;;5030814;28;20037;-76
2022/01/01 02:25:16;;;;;;;15.13;8.73;;;10.60;99.90;;;;;;5030582;28;20041;-75
2022/01/01 02:27:43;;;;;;;34.83;13.52;;;10.60;99.90;;;;;;5017871;28;20056;-75
2022/01/01 02:30:11;;;;;;;51.83;19.42;;;10.60;99.90;;;;;;5022180;28;20092;-75
2022/01/01 02:32:37;;;;;;;32.33;13.13;;;10.50;99.90;;;;;;5029400;28;20536;-75
2022/01/01 02:35:09;;;;;;;8.27;6.10;;;10.50;99.90;;;;;;5014501;28;20049;-75
2022/01/01 02:37:35;;;;;;;29.20;9.98;;;10.50;99.90;;;;;;5026868;28;20045;-75
2022/01/01 02:40:02;;;;;;;19.13;7.00;;;10.60;99.90;;;;;;5028804;28;20076;-75
2022/01/01 02:42:28;;;;;;;6.97;3.67;;;10.50;99.90;;;;;;5031044;28;20049;-75
2022/01/01 02:44:54;;;;;;;34.60;10.32;;;10.50;99.90;;;;;;5025373;28;20091;-75
2022/01/01 02:47:20;;;;;;;13.75;4.90;;;10.50;99.90;;;;;;5013499;28;20489;-75
2022/01/01 02:49:47;;;;;;;13.80;5.93;;;10.50;99.90;;;;;;5030717;28;20048;-75
2022/01/01 02:52:13;;;;;;;11.45;6.35;;;10.50;99.90;;;;;;5030722;28;20041;-75
2022/01/01 02:54:38;;;;;;;9.65;4.32;;;10.50;99.90;;;;;;5030242;28;20445;-75
2022/01/01 02:57:04;;;;;;;13.57;5.75;;;10.50;99.90;;;;;;5009702;28;20506;-75
2022/01/01 02:59:30;;;;;;;31.55;10.48;;;10.50;99.90;;;;;;5039679;28;20041;-75
2022/01/01 03:01:56;;;;;;;21.35;6.88;;;10.50;99.90;;;;;;5029909;28;20120;-75
2022/01/01 03:04:22;;;;;;;44.53;14.50;;;10.50;99.90;;;;;;5030187;28;20179;-75
2022/01/01 03:06:53;;;;;;;39.47;11.18;;;10.50;99.90;;;;;;5046333;28;20068;-75
2022/01/01 03:09:19;;;;;;;35.70;13.82;;;10.50;99.90;;;;;;5024533;28;20099;-75
2022/01/01 03:11:45;;;;;;;32.03;10.15;;;10.50;99.90;;;;;;5029765;28;20044;-75
2022/01/01 03:14:17;;;;;;;38.78;15.65;;;10.50;99.90;;;;;;5029945;28;20042;-75
2022/01/01 03:16:45;;;;;;;37.08;10.45;;;10.60;99.90;;;;;;5012499;28;20038;-75
2022/01/01 03:19:11;;;;;;;82.97;22.20;;;10.60;99.90;;;;;;5012412;28;20033;-75
2022/01/01 03:21:37;;;;;;;18.15;10.10;;;10.60;99.90;;;;;;5046409;28;20052;-75
2022/01/01 03:24:03;;;;;;;51.70;17.70;;;10.60;99.90;;;;;;5045920;28;20136;-76
2022/01/01 03:26:29;;;;;;;20.20;7.82;;;10.60;99.90;;;;;;5012045;28;20037;-75
2022/01/01 03:28:55;;;;;;;77.80;24.33;;;10.70;99.90;;;;;;5030124;28;20493;-76
2022/01/01 03:31:20;;;;;;;26.05;10.02;;;10.70;99.90;;;;;;5028216;28;20045;-76
2022/01/01 03:33:46;;;;;;;40.80;12.13;;;10.70;99.90;;;;;;5029493;28;20068;-75
2022/01/01 03:36:12;;;;;;;15.05;5.35;;;10.70;99.90;;;;;;5013256;28;20041;-75
2022/01/01 03:38:38;;;;;;;19.67;7.75;;;10.60;99.90;;;;;;5027971;28;20521;-75
2022/01/01 03:41:03;;;;;;;17.65;5.97;;;10.70;99.90;;;;;;5029435;28;20037;-75
2022/01/01 03:43:29;;;;;;;26.98;11.15;;;10.60;99.90;;;;;;5029446;28;20037;-75
2022/01/01 03:45:55;;;;;;;27.70;6.93;;;10.60;99.90;;;;;;5028095;28;20092;-75
2022/01/01 03:48:20;;;;;;;20.52;8.52;;;10.60;99.90;;;;;;5023198;28;20084;-75
2022/01/01 03:50:46;;;;;;;16.05;6.72;;;10.70;99.90;;;;;;5029690;28;20049;-75
2022/01/01 03:53:12;;;;;;;31.75;10.68;;;10.60;99.90;;;;;;5021658;28;20068;-76
2022/01/01 03:55:38;;;;;;;35.63;9.35;;;10.60;99.90;;;;;;5027741;28;20072;-75
2022/01/01 03:58:03;;;;;;;16.02;7.15;;;10.60;99.90;;;;;;5028864;28;20403;-75
2022/01/01 04:00:29;;;;;;;10.38;5.15;;;10.60;99.90;;;;;;5029238;28;20091;-75
2022/01/01 04:03:05;;;;;;;7.53;3.72;;;10.60;99.90;;;;;;5025706;28;20037;-75
2022/01/01 04:05:31;;;;;;;12.15;4.60;;;10.60;99.90;;;;;;5023210;28;20049;-76
2022/01/01 04:07:56;;;;;;;25.63;12.65;;;10.60;99.90;;;;;;5029520;28;20053;-76
2022/01/01 04:10:22;;;;;;;34.53;11.70;;;10.60;99.90;;;;;;5045314;28;20080;-76
2022/01/01 04:12:48;;;;;;;8.57;3.53;;;10.60;99.90;;;;;;5028532;28;20068;-75
2022/01/01 04:15:13;;;;;;;9.10;3.58;;;10.60;99.90;;;;;;5023707;28;20056;-75
2022/01/01 04:17:39;;;;;;;26.50;10.95;;;10.60;99.90;;;;;;5028535;28;20557;-76
2022/01/01 04:20:06;;;;;;;15.63;6.75;;;10.60;99.90;;;;;;5023339;28;20095;-75
2022/01/01 04:22:32;;;;;;;57.40;18.65;;;10.60;99.90;;;;;;5028682;28;20041;-75
2022/01/01 04:24:58;;;;;;;7.28;4.88;;;10.60;99.90;;;;;;5028400;28;20041;-75
2022/01/01 04:27:23;;;;;;;23.48;10.88;;;10.60;99.90;;;;;;5027703;28;20441;-75
2022/01/01 04:29:49;;;;;;;9.90;5.72;;;10.60;99.90;;;;;;4997272;28;20069;-76
2022/01/01 04:32:18;;;;;;;7.38;4.28;;;10.60;99.90;;;;;;5057469;28;20382;-75
2022/01/01 04:34:44;;;;;;;18.45;5.53;;;10.60;99.90;;;;;;5028597;28;20045;-75
2022/01/01 04:37:15;;;;;;;45.53;15.40;;;10.60;99.90;;;;;;5026678;28;20046;-76
2022/01/01 04:39:41;;;;;;;8.48;5.18;;;10.60;99.90;;;;;;5026427;28;20099;-75
2022/01/01 04:42:07;;;;;;;3.13;2.85;;;10.60;99.90;;;;;;5028426;28;20041;-75
2022/01/01 04:44:33;;;;;;;11.90;5.90;;;10.60;99.90;;;;;;5028908;28;20080;-75
2022/01/01 04:46:59;;;;;;;28.05;10.27;;;10.60;99.90;;;;;;5027485;28;20079;-75
2022/01/01 04:49:25;;;;;;;9.75;4.95;;;10.60;99.90;;;;;;5028638;28;20406;-75
2022/01/01 04:51:51;;;;;;;19.00;7.55;;;10.60;99.90;;;;;;5025878;28;20049;-75
2022/01/01 04:54:17;;;;;;;23.60;10.85;;;10.60;99.90;;;;;;5025115;28;20512;-75
2022/01/01 04:56:48;;;;;;;7.13;4.85;;;10.60;99.90;;;;;;5028251;28;20052;-75
2022/01/01 04:59:15;;;;;;;44.35;20.35;;;10.60;99.90;;;;;;5029038;28;20037;-76
2022/01/01 05:01:41;;;;;;;41.53;18.67;;;10.60;99.90;;;;;;5007966;28;20042;-76
2022/01/01 05:04:08;;;;;;;34.03;13.57;;;10.60;99.90;;;;;;5020646;28;20068;-76
2022/01/01 05:06:34;;;;;;;16.30;9.82;;;10.70;99.90;;;;;;5044284;28;20037;-75
2022/01/01 05:09:00;;;;;;;50.13;19.55;;;10.70;99.90;;;;;;5028201;28;20038;-75
2022/01/01 05:11:26;;;;;;;19.25;8.32;;;10.70;99.90;;;;;;5017510;28;20045;-75
2022/01/01 05:13:52;;;;;;;89.07;39.90;;;10.70;99.90;;;;;;5029015;28;20107;-75
2022/01/01 05:16:19;;;;;;;37.95;19.23;;;10.70;99.90;;;;;;5030944;28;20048;-76
2022/01/01 05:18:45;;;;;;;13.35;7.93;;;10.70;99.90;;;;;;5016298;28;20049;-76
2022/01/01 05:21:11;;;;;;;22.02;10.18;;;10.70;99.90;;;;;;5020366;28;20041;-76
2022/01/01 05:23:37;;;;;;;9.15;5.53;;;10.70;99.90;;;;;;5032014;28;20053;-75
2022/01/01 05:26:03;;;;;;;9.35;6.95;;;10.80;99.90;;;;;;5031719;28;20042;-76
2022/01/01 05:28:29;;;;;;;77.32;28.83;;;10.70;99.90;;;;;;5032170;28;20049;-75
2022/01/01 05:30:55;;;;;;;37.97;15.07;;;10.80;99.90;;;;;;5030462;28;20051;-76
2022/01/01 05:33:21;;;;;;;77.10;29.08;;;10.70;99.90;;;;;;5048667;28;20041;-76
2022/01/01 05:35:47;;;;;;;55.45;22.25;;;10.80;99.90;;;;;;5047928;28;20057;-76
2022/01/01 05:38:12;;;;;;;46.72;19.25;;;10.70;99.90;;;;;;5031781;28;20138;-75
2022/01/01 05:40:38;;;;;;;61.05;26.77;;;10.70;99.90;;;;;;5014746;28;20161;-76
2022/01/01 05:43:06;;;;;;;34.22;13.15;;;10.70;99.90;;;;;;5031569;28;20523;-76
2022/01/01 05:45:32;;;;;;;34.03;15.93;;;10.70;99.90;;;;;;5011516;28;20475;-76
2022/01/01 05:47:58;;;;;;;29.20;12.38;;;10.70;99.90;;;;;;5017560;28;20045;-75
2022/01/01 05:50:23;;;;;;;55.17;18.83;;;10.60;99.90;;;;;;5029173;28;20045;-75
2022/01/01 05:52:49;;;;;;;25.65;12.00;;;10.70;99.90;;;;;;5031490;28;20054;-75
2022/01/01 05:55:15;;;;;;;41.85;10.20;;;10.60;99.90;;;;;;5039217;28;20045;-75
2022/01/01 05:57:40;;;;;;;29.80;6.72;;;10.60;99.90;;;;;;5043464;28;20052;-75
2022/01/01 06:00:07;;;;;;;10.93;6.28;;;10.60;99.90;;;;;;5031655;28;20040;-75
2022/01/01 06:02:40;;;;;;;15.88;4.22;;;10.60;99.90;;;;;;5030970;28;20040;-75
2022/01/01 06:05:07;;;;;;;12.82;4.28;;;10.50;99.90;;;;;;5021522;28;20041;-75
2022/01/01 06:07:33;;;;;;;1.65;1.52;;;10.50;99.90;;;;;;5030844;28;20041;-75
2022/01/01 06:09:59;;;;;;;21.65;8.25;;;10.50;99.90;;;;;;5031061;28;20044;-75
2022/01/01 06:12:25;;;;;;;19.67;7.65;;;10.60;99.90;;;;;;5031330;28;20045;-75
2022/01/01 06:14:51;;;;;;;51.58;14.38;;;10.60;99.90;;;;;;5030066;28;20045;-75
2022/01/01 06:17:17;;;;;;;13.07;5.50;;;10.60;99.90;;;;;;5030885;28;20125;-75
2022/01/01 06:19:42;;;;;;;9.88;5.70;;;10.60;99.90;;;;;;5030751;28;20030;-75
2022/01/01 06:22:08;;;;;;;3.50;3.00;;;10.60;99.90;;;;;;5023856;28;20038;-75
2022/01/01 06:24:34;;;;;;;17.83;6.30;;;10.60;99.90;;;;;;5030770;28;20029;-75
2022/01/01 06:26:59;;;;;;;20.23;8.25;;;10.60;99.90;;;;;;5030705;28;20512;-75
2022/01/01 06:29:25;;;;;;;42.80;12.77;;;10.60;99.90;;;;;;5028976;28;20049;-75
2022/01/01 06:31:51;;;;;;;19.73;6.20;;;10.70;99.90;;;;;;5022790;28;20041;-75
2022/01/01 06:34:16;;;;;;;11.13;5.75;;;10.70;99.90;;;;;;5047224;28;20845;-75
2022/01/01 06:36:42;;;;;;;29.35;10.55;;;10.70;99.90;;;;;;5028307;28;20053;-75
2022/01/01 06:39:08;;;;;;;4.15;2.80;;;10.70;99.90;;;;;;5029538;28;20412;-75
2022/01/01 06:41:33;;;;;;;16.67;5.28;;;10.80;99.90;;;;;;5031238;28;20044;-75
2022/01/01 06:43:59;;;;;;;18.85;5.90;;;10.80;99.90;;;;;;5030225;28;20037;-75
2022/01/01 06:46:25;;;;;;;39.00;11.75;;;10.80;99.90;;;;;;5030010;28;20071;-76
2022/01/01 06:48:51;;;;;;;18.30;6.93;;;10.80;99.90;;;;;;5027753;28;20078;-76
2022/01/01 06:51:16;;;;;;;20.50;6.28;;;10.80;99.90;;;;;;5030563;28;20449;-75
2022/01/01 06:53:42;;;;;;;7.85;2.20;;;10.80;99.90;;;;;;5029685;28;20037;-75
2022/01/01 06:56:09;;;;;;;22.90;7.85;;;10.80;99.90;;;;;;5037050;28;20117;-76
2022/01/01 06:58:36;;;;;;;20.33;5.97;;;10.80;99.90;;;;;;5028254;28;20551;-76
2022/01/01 07:01:02;;;;;;;5.05;3.58;;;10.80;99.90;;;;;;5029930;28;20038;-75
2022/01/01 07:03:28;;;;;;;17.85;2.65;;;10.90;99.90;;;;;;5030126;28;20045;-76
2022/01/01 07:05:54;;;;;;;10.70;5.47;;;10.90;99.90;;;;;;5024146;28;20103;-75
2022/01/01 07:08:19;;;;;;;12.20;4.63;;;10.90;99.90;;;;;;5029843;28;20049;-75
2022/01/01 07:10:45;;;;;;;0.10;0.10;;;10.90;99.90;;;;;;5030052;28;20046;-75
2022/01/01 07:13:13;;;;;;;18.13;6.18;;;10.90;99.90;;;;;;5029591;28;20045;-75
2022/01/01 07:15:39;;;;;;;29.58;9.55;;;10.90;99.90;;;;;;5022387;28;20070;-76
2022/01/01 07:18:04;;;;;;;3.60;2.53;;;10.90;99.90;;;;;;5029880;28;20050;-75
2022/01/01 07:20:30;;;;;;;2.35;1.92;;;10.90;99.90;;;;;;5029577;28;20041;-75
2022/01/01 07:22:56;;;;;;;2.60;2.40;;;10.90;99.90;;;;;;5043869;28;20530;-75
2022/01/01 07:25:21;;;;;;;14.10;6.60;;;11.00;99.90;;;;;;5029609;28;20041;-75
2022/01/01 07:27:47;;;;;;;2.20;1.42;;;11.00;99.90;;;;;;5046666;28;20068;-75
2022/01/01 07:30:13;;;;;;;11.20;4.57;;;11.00;99.90;;;;;;5028170;28;20056;-75
2022/01/01 07:32:40;;;;;;;2.58;2.35;;;11.00;99.90;;;;;;5030104;28;20041;-75
2022/01/01 07:35:07;;;;;;;0.75;0.75;;;11.10;99.90;;;;;;5029505;28;20045;-75
2022/01/01 07:37:33;;;;;;;3.33;2.38;;;11.00;99.90;;;;;;5024960;28;20053;-75
2022/01/01 07:39:59;;;;;;;7.28;1.83;;;11.10;99.90;;;;;;5038535;28;20045;-75
2022/01/01 07:42:24;;;;;;;2.90;2.08;;;11.10;99.90;;;;;;5013514;28;20041;-75
2022/01/01 07:44:50;;;;;;;6.30;3.30;;;11.10;99.90;;;;;;5028768;28;20045;-75
2022/01/01 07:47:16;;;;;;;7.72;3.33;;;11.10;99.90;;;;;;5024698;28;20107;-75
2022/01/01 07:49:42;;;;;;;16.00;5.30;;;11.10;99.90;;;;;;5029729;28;20081;-75
2022/01/01 07:52:09;;;;;;;8.75;3.78;;;11.20;99.90;;;;;;5029226;28;20049;-75
2022/01/01 07:54:34;;;;;;;13.63;5.25;;;11.20;99.90;;;;;;5022927;28;20060;-75
2022/01/01 07:57:00;;;;;;;19.75;7.03;;;11.20;99.90;;;;;;5014759;28;20045;-75
2022/01/01 07:59:26;;;;;;;13.35;5.57;;;11.20;99.90;;;;;;5012438;28;20120;-75
2022/01/01 08:01:51;;;;;;;20.70;5.55;;;11.30;99.90;;;;;;5029103;28;20042;-76
2022/01/01 08:04:17;;;;;;;4.97;2.72;;;11.30;99.90;;;;;;5040343;28;20069;-75
2022/01/01 08:06:43;;;;;;;2.38;1.70;;;11.30;99.90;;;;;;5060143;28;20508;-75
2022/01/01 08:09:09;;;;;;;36.10;10.63;;;11.40;99.90;;;;;;5029176;28;20085;-76
2022/01/01 08:11:34;;;;;;;5.10;3.70;;;11.40;99.90;;;;;;5029401;28;20057;-76
2022/01/01 08:14:00;;;;;;;21.42;6.35;;;11.40;99.90;;;;;;5023823;28;20037;-75
2022/01/01 08:16:26;;;;;;;8.00;3.63;;;11.40;99.90;;;;;;5027856;28;20076;-75
2022/01/01 08:18:52;;;;;;;11.15;4.90;;;11.40;99.90;;;;;;5029895;28;20048;-75
2022/01/01 08:21:17;;;;;;;42.03;11.63;;;11.50;99.90;;;;;;5025003;28;20033;-75
2022/01/01 08:23:43;;;;;;;19.55;7.85;;;11.50;99.90;;;;;;5029096;28;20094;-75
2022/01/01 08:26:09;;;;;;;39.00;13.75;;;11.50;99.90;;;;;;5024962;28;20045;-75
2022/01/01 08:28:35;;;;;;;31.55;12.93;;;11.60;99.90;;;;;;5046038;28;20052;-75
2022/01/01 08:31:00;;;;;;;10.70;4.82;;;11.60;99.90;;;;;;5021596;28;20030;-75
2022/01/01 08:33:26;;;;;;;17.00;4.28;;;11.60;99.90;;;;;;5027983;28;20521;-75
2022/01/01 08:35:52;;;;;;;14.15;4.05;;;11.60;99.90;;;;;;5028333;28;20041;-75
2022/01/01 08:38:18;;;;;;;11.93;5.95;;;11.70;99.90;;;;;;5025107;28;20037;-75
2022/01/01 08:40:44;;;;;;;11.15;6.95;;;11.70;99.90;;;;;;5018908;28;20037;-75
2022/01/01 08:43:09;;;;;;;7.22;4.63;;;11.70;99.90;;;;;;5011862;28;20501;-76
2022/01/01 08:45:37;;;;;;;18.85;8.18;;;11.80;99.90;;;;;;5028315;28;20155;-75
2022/01/01 08:48:04;;;;;;;22.30;8.13;;;11.80;99.90;;;;;;5025019;28;20042;-75
2022/01/01 08:50:30;;;;;;;34.88;12.27;;;11.80;99.90;;;;;;5030010;28;20072;-76
2022/01/01 08:52:57;;;;;;;16.85;6.57;;;11.90;99.90;;;;;;5010706;28;20076;-75
2022/01/01 08:55:24;;;;;;;12.30;6.72;;;11.90;99.90;;;;;;5022701;28;20052;-76
2022/01/01 08:57:50;;;;;;;7.63;5.05;;;12.00;99.90;;;;;;5039866;28;20060;-75
2022/01/01 09:00:16;;;;;;;21.50;9.55;;;12.00;99.90;;;;;;5044537;28;20033;-75
2022/01/01 09:02:42;;;;;;;13.20;6.55;;;12.00;99.90;;;;;;5040055;28;20063;-76
2022/01/01 09:05:09;;;;;;;15.52;8.50;;;12.00;99.90;;;;;;5036154;28;20041;-76
2022/01/01 09:07:34;;;;;;;12.57;6.00;;;12.10;99.90;;;;;;5020357;28;20042;-76
2022/01/01 09:10:03;;;;;;;8.48;6.30;;;12.10;99.90;;;;;;5030362;28;20068;-75
2022/01/01 09:12:29;;;;;;;16.95;7.63;;;12.20;99.90;;;;;;5026708;28;20076;-75
2022/01/01 09:14:56;;;;;;;22.73;8.98;;;12.20;99.90;;;;;;5044080;28;20041;-76
2022/01/01 09:17:23;;;;;;;8.50;5.40;;;12.20;99.90;;;;;;5045673;28;20079;-75
2022/01/01 09:19:49;;;;;;;7.68;4.53;;;12.20;99.90;;;;;;5028827;28;20119;-75
2022/01/01 09:22:15;;;;;;;17.27;9.80;;;12.20;99.90;;;;;;5045297;28;20044;-75
2022/01/01 09:24:41;;;;;;;2.28;1.80;;;12.20;99.90;;;;;;5030400;28;20041;-75
2022/01/01 09:27:07;;;;;;;14.65;6.32;;;12.20;99.90;;;;;;5028018;28;20046;-76
2022/01/01 09:29:35;;;;;;;6.00;3.50;;;12.20;99.90;;;;;;5042353;28;20065;-75
2022/01/01 09:32:02;;;;;;;16.85;8.88;;;12.20;99.90;;;;;;5058254;28;20084;-75
2022/01/01 09:34:28;;;;;;;9.20;5.63;;;12.30;99.90;;;;;;5029669;28;20061;-75
2022/01/01 09:36:54;;;;;;;31.48;7.30;;;12.30;99.90;;;;;;5044644;28;20049;-75
2022/01/01 09:39:20;;;;;;;20.70;7.68;;;12.20;99.90;;;;;;5017881;28;20125;-75
2022/01/01 09:41:47;;;;;;;13.60;5.93;;;12.30;99.90;;;;;;5017425;28;20069;-75
2022/01/01 09:44:15;;;;;;;18.42;8.40;;;12.30;99.90;;;;;;5013838;28;20048;-76
2022/01/01 09:46:45;;;;;;;10.57;4.60;;;12.30;99.90;;;;;;5027786;28;20064;-75
2022/01/01 09:49:15;;;;;;;14.32;4.40;;;12.30;99.90;;;;;;5028063;28;20095;-75
2022/01/01 09:51:42;;;;;;;21.52;8.40;;;12.30;99.90;;;;;;5026830;28;20068;-75
2022/01/01 09:54:08;;;;;;;7.35;2.83;;;12.30;99.90;;;;;;5039313;28;20125;-75
2022/01/01 09:56:35;;;;;;;18.02;6.75;;;12.30;99.90;;;;;;5019636;28;20316;-75
2022/01/01 09:59:00;;;;;;;4.88;3.40;;;12.40;99.90;;;;;;5023321;28;20125;-75
2022/01/01 10:01:26;;;;;;;26.10;8.45;;;12.40;99.90;;;;;;5012677;28;20129;-75
2022/01/01 10:03:53;;;;;;;6.45;3.95;;;12.40;99.90;;;;;;5019059;28;20041;-75
2022/01/01 10:06:21;;;;;;;14.88;4.35;;;12.40;99.90;;;;;;5020212;28;20076;-75
2022/01/01 10:08:55;;;;;;;2.50;1.77;;;12.40;99.90;;;;;;5041493;28;20129;-75
2022/01/01 10:11:21;;;;;;;14.23;5.57;;;12.40;99.90;;;;;;5027419;28;20049;-75
2022/01/01 10:13:47;;;;;;;5.68;2.83;;;12.40;99.90;;;;;;5027973;28;20103;-76
2022/01/01 10:16:14;;;;;;;12.55;3.95;;;12.40;99.90;;;;;;5023153;28;20445;-76
2022/01/01 10:18:42;;;;;;;19.98;7.20;;;12.40;99.90;;;;;;5028461;28;20408;-76
2022/01/01 10:21:11;;;;;;;6.57;2.97;;;12.40;99.90;;;;;;5027507;28;20033;-75
2022/01/01 10:23:40;;;;;;;11.00;3.88;;;12.40;99.90;;;;;;5026987;28;20041;-76
2022/01/01 10:29:19;;;;;;;8.82;3.13;;;12.40;99.90;;;;;;5027964;28;20053;-75
2022/01/01 10:32:12;;;;;;;7.05;4.47;;;12.40;99.90;;;;;;5023748;28;20806;-75
2022/01/01 10:34:43;;;;;;;6.35;3.05;;;12.40;99.90;;;;;;5025719;28;20543;-76
2022/01/01 10:37:13;;;;;;;7.68;2.65;;;12.40;99.90;;;;;;5010238;28;20245;-75
2022/01/01 10:39:51;;;;;;;1.75;1.20;;;12.40;99.90;;;;;;5025651;28;20046;-75
2022/01/01 10:42:18;;;;;;;9.73;4.15;;;12.40;99.90;;;;;;5016241;28;20056;-75
2022/01/01 10:44:49;;;;;;;4.93;2.95;;;12.40;99.90;;;;;;5027105;28;20041;-75
2022/01/01 10:47:20;;;;;;;5.93;2.63;;;12.50;99.90;;;;;;5027319;28;20111;-76
2022/01/01 10:52:17;;;;;;;7.07;2.95;;;12.50;99.90;;;;;;5026876;28;20775;-75
2022/01/01 10:55:02;;;;;;;10.18;4.15;;;12.50;99.90;;;;;;5022414;28;20041;-75
2022/01/01 10:57:34;;;;;;;7.20;2.92;;;12.60;99.90;;;;;;5039598;28;20095;-75
2022/01/01 11:00:16;;;;;;;8.18;4.07;;;12.70;99.90;;;;;;5025609;28;20048;-75
2022/01/01 11:02:44;;;;;;;5.63;3.10;;;12.70;99.90;;;;;;5025840;28;20042;-75
2022/01/01 11:05:10;;;;;;;6.00;2.45;;;12.70;99.90;;;;;;5043721;28;20298;-76
2022/01/01 11:07:39;;;;;;;7.65;4.22;;;12.70;99.90;;;;;;5020366;28;20773;-75
2022/01/01 11:10:05;;;;;;;3.83;2.10;;;12.80;99.90;;;;;;5023387;28;20041;-75
2022/01/01 11:12:31;;;;;;;5.40;3.10;;;12.80;99.90;;;;;;5023540;28;20037;-75
2022/01/01 11:15:01;;;;;;;10.20;4.80;;;12.70;99.90;;;;;;5009806;28;20064;-76
2022/01/01 11:17:27;;;;;;;20.38;3.50;;;12.80;99.90;;;;;;5012051;28;20057;-75
2022/01/01 11:19:53;;;;;;;3.67;2.50;;;12.70;99.90;;;;;;5023218;28;20382;-76
2022/01/01 11:22:20;;;;;;;9.20;3.00;;;12.80;99.90;;;;;;5025582;28;20041;-76
2022/01/01 11:24:47;;;;;;;5.32;2.72;;;12.80;99.90;;;;;;5019287;28;20191;-75
2022/01/01 11:27:13;;;;;;;1.70;1.27;;;12.80;99.90;;;;;;5021423;28;20395;-75
2022/01/01 11:29:49;;;;;;;1.65;1.40;;;12.80;99.90;;;;;;5037936;28;20046;-76
2022/01/01 11:32:18;;;;;;;2.53;2.00;;;12.80;99.90;;;;;;5023815;28;20049;-76
2022/01/01 11:34:46;;;;;;;3.92;1.70;;;12.80;99.90;;;;;;5008940;28;20046;-75
2022/01/01 11:37:16;;;;;;;0.98;0.90;;;12.80;99.90;;;;;;5024151;28;20497;-75
2022/01/01 11:39:43;;;;;;;1.40;1.23;;;12.90;99.90;;;;;;5026448;28;20045;-75
2022/01/01 11:42:12;;;;;;;2.63;2.03;;;12.90;99.90;;;;;;5022984;28;20617;-75
2022/01/01 11:44:42;;;;;;;13.40;3.75;;;12.90;99.90;;;;;;5009558;28;20690;-76
2022/01/01 11:47:16;;;;;;;4.80;3.35;;;12.90;99.90;;;;;;5017342;28;20907;-76
2022/01/01 11:49:42;;;;;;;13.55;5.22;;;12.90;99.90;;;;;;5017735;28;20132;-76
2022/01/01 11:52:08;;;;;;;8.98;3.75;;;12.90;99.90;;;;;;5033551;28;21735;-75
2022/01/01 11:54:38;;;;;;;6.20;1.98;;;12.90;99.90;;;;;;5015051;28;20095;-76
2022/01/01 11:57:16;;;;;;;6.38;2.65;;;13.00;99.90;;;;;;5019617;28;20497;-75
2022/01/01 11:59:50;;;;;;;10.20;3.50;;;13.00;99.90;;;;;;5016024;28;20033;-76
2022/01/01 12:02:18;;;;;;;4.93;2.63;;;13.00;99.90;;;;;;5019240;28;20085;-76
2022/01/01 12:05:07;;;;;;;7.20;3.30;;;13.00;99.90;;;;;;5039511;28;20040;-75
2022/01/01 12:07:46;;;;;;;9.82;3.28;;;13.00;99.90;;;;;;5015502;28;20053;-76
2022/01/01 12:10:21;;;;;;;2.13;0.75;;;13.00;99.90;;;;;;5007940;28;20045;-75
2022/01/01 12:12:51;;;;;;;4.85;1.60;;;13.00;99.90;;;;;;5025017;28;20207;-76
2022/01/01 12:15:37;;;;;;;4.35;2.85;;;13.00;99.90;;;;;;5024865;28;20172;-76
2022/01/01 12:18:08;;;;;;;4.57;2.25;;;13.00;99.90;;;;;;5023968;28;20033;-76
2022/01/01 12:20:39;;;;;;;2.70;2.15;;;13.00;99.90;;;;;;5009191;28;20045;-76
2022/01/01 12:23:12;;;;;;;6.07;2.65;;;13.00;99.90;;;;;;5018928;28;20037;-75
2022/01/01 12:25:40;;;;;;;3.63;2.35;;;13.00;99.90;;;;;;5023971;28;20036;-75
2022/01/01 12:28:08;;;;;;;6.32;2.60;;;13.00;99.90;;;;;;5005801;28;20517;-76
2022/01/01 12:30:52;;;;;;;4.32;2.25;;;13.00;99.90;;;;;;5018808;28;20133;-76
2022/01/01 12:33:27;;;;;;;2.88;2.08;;;13.00;99.90;;;;;;5017339;28;20324;-76
2022/01/01 12:35:55;;;;;;;9.68;2.20;;;13.10;99.90;;;;;;5022477;28;20187;-75
2022/01/01 12:38:27;;;;;;;5.32;2.28;;;13.10;99.90;;;;;;5018982;28;20038;-76
2022/01/01 12:41:02;;;;;;;7.23;3.07;;;13.10;99.90;;;;;;5021391;28;20038;-75
2022/01/01 12:43:30;;;;;;;2.60;1.13;;;13.10;99.90;;;;;;5038639;28;20295;-75
2022/01/01 12:45:58;;;;;;;2.25;1.38;;;13.20;99.90;;;;;;5019369;28;20038;-76